sensor_id;sensor_type;location;lat;lon;timestamp;pressure;altitude;pressure_sealevel;temperature;humidity
11345;BME280;5727;42.600;23.028;2023-01-28T00:01:15;92986.22;;;1.71;100.00
11345;BME280;5727;42.600;23.028;2023-01-28T00:03:42;92984.41;;;1.58;100.00
11345;BME280;5727;42.600;23.028;2023-01-28T00:06:11;92987.34;;;1.52;100.00
11345;BME280;5727;42.600;23.028;2023-01-28T00:08:38;92989.19;;;1.51;100.00
11345;BME280;5727;42.600;23.028;2023-01-28T00:11:07;92989.66;;;1.40;100.00
11345;BME280;5727;42.600;23.028;2023-01-28T00:13:37;92991.94;;;1.41;100.00
11345;BME280;5727;42.600;23.028;2023-01-28T00:16:05;92993.75;;;1.41;100.00
11345;BME280;5727;42.600;23.028;2023-01-28T00:18:33;92995.00;;;1.43;100.00
11345;BME280;5727;42.600;23.028;2023-01-28T00:21:01;92996.44;;;1.49;100.00
11345;BME280;5727;42.600;23.028;2023-01-28T00:23:30;92994.72;;;1.45;100.00
11345;BME280;5727;42.600;23.028;2023-01-28T00:25:57;92993.28;;;1.39;100.00
11345;BME280;5727;42.600;23.028;2023-01-28T00:28:24;92999.88;;;1.45;100.00
11345;BME280;5727;42.600;23.028;2023-01-28T00:30:52;93001.78;;;1.39;100.00
11345;BME280;5727;42.600;23.028;2023-01-28T00:33:19;93000.72;;;1.40;100.00
11345;BME280;5727;42.600;23.028;2023-01-28T00:35:45;92999.41;;;1.43;100.00
11345;BME280;5727;42.600;23.028;2023-01-28T00:38:13;93003.06;;;1.55;100.00
11345;BME280;5727;42.600;23.028;2023-01-28T00:40:40;93009.63;;;1.61;100.00
11345;BME280;5727;42.600;23.028;2023-01-28T00:43:07;93011.84;;;1.68;100.00
11345;BME280;5727;42.600;23.028;2023-01-28T00:45:33;93011.84;;;1.68;100.00
11345;BME280;5727;42.600;23.028;2023-01-28T00:48:02;93011.00;;;1.72;100.00
11345;BME280;5727;42.600;23.028;2023-01-28T00:50:29;93012.22;;;1.61;100.00
11345;BME280;5727;42.600;23.028;2023-01-28T00:52:56;93019.03;;;1.71;100.00
11345;BME280;5727;42.600;23.028;2023-01-28T00:55:22;93012.03;;;1.71;100.00
11345;BME280;5727;42.600;23.028;2023-01-28T00:57:49;93014.59;;;1.58;100.00
11345;BME280;5727;42.600;23.028;2023-01-28T01:00:17;93019.38;;;1.51;100.00
11345;BME280;5727;42.600;23.028;2023-01-28T01:02:45;93008.88;;;1.47;100.00
11345;BME280;5727;42.600;23.028;2023-01-28T01:05:13;93018.63;;;1.50;100.00
11345;BME280;5727;42.600;23.028;2023-01-28T01:07:40;93016.69;;;1.42;100.00
11345;BME280;5727;42.600;23.028;2023-01-28T01:10:08;93019.09;;;1.39;100.00
11345;BME280;5727;42.600;23.028;2023-01-28T01:12:35;93020.41;;;1.23;100.00
11345;BME280;5727;42.600;23.028;2023-01-28T01:15:01;93025.47;;;1.28;100.00
11345;BME280;5727;42.600;23.028;2023-01-28T01:17:29;93016.91;;;1.32;100.00
11345;BME280;5727;42.600;23.028;2023-01-28T01:19:56;93025.19;;;1.29;100.00
11345;BME280;5727;42.600;23.028;2023-01-28T01:22:24;93024.03;;;1.22;100.00
11345;BME280;5727;42.600;23.028;2023-01-28T01:24:50;93027.94;;;1.06;100.00
11345;BME280;5727;42.600;23.028;2023-01-28T01:27:17;93019.41;;;1.05;100.00
11345;BME280;5727;42.600;23.028;2023-01-28T01:29:44;93025.06;;;1.07;100.00
11345;BME280;5727;42.600;23.028;2023-01-28T01:32:10;93024.66;;;1.14;100.00
11345;BME280;5727;42.600;23.028;2023-01-28T01:34:37;93030.13;;;1.12;100.00
11345;BME280;5727;42.600;23.028;2023-01-28T01:39:50;93034.53;;;1.25;100.00
11345;BME280;5727;42.600;23.028;2023-01-28T01:42:17;93028.41;;;1.21;100.00
11345;BME280;5727;42.600;23.028;2023-01-28T01:44:55;93030.34;;;1.29;100.00
11345;BME280;5727;42.600;23.028;2023-01-28T01:47:24;93030.34;;;1.29;100.00
11345;BME280;5727;42.600;23.028;2023-01-28T01:49:51;93025.00;;;1.39;100.00
11345;BME280;5727;42.600;23.028;2023-01-28T01:52:21;93027.44;;;1.49;100.00
11345;BME280;5727;42.600;23.028;2023-01-28T01:54:53;93031.03;;;1.48;100.00
11345;BME280;5727;42.600;23.028;2023-01-28T01:57:25;93030.06;;;1.44;100.00
11345;BME280;5727;42.600;23.028;2023-01-28T01:59:54;93021.31;;;1.45;100.00
11345;BME280;5727;42.600;23.028;2023-01-28T02:02:29;93027.13;;;1.51;100.00
11345;BME280;5727;42.600;23.028;2023-01-28T02:04:56;93033.81;;;1.52;100.00
11345;BME280;5727;42.600;23.028;2023-01-28T02:07:23;93040.16;;;1.59;100.00
11345;BME280;5727;42.600;23.028;2023-01-28T02:09:51;93035.84;;;1.68;100.00
11345;BME280;5727;42.600;23.028;2023-01-28T02:12:20;93036.88;;;1.67;100.00
11345;BME280;5727;42.600;23.028;2023-01-28T02:14:54;93042.25;;;1.71;100.00
11345;BME280;5727;42.600;23.028;2023-01-28T02:17:23;93039.09;;;1.60;100.00
11345;BME280;5727;42.600;23.028;2023-01-28T02:19:53;93039.28;;;1.64;100.00
11345;BME280;5727;42.600;23.028;2023-01-28T02:22:42;93035.84;;;1.68;100.00
11345;BME280;5727;42.600;23.028;2023-01-28T02:25:31;93035.91;;;1.63;100.00
11345;BME280;5727;42.600;23.028;2023-01-28T02:28:17;93029.63;;;1.69;100.00
11345;BME280;5727;42.600;23.028;2023-01-28T02:30:51;93037.09;;;1.71;100.00
11345;BME280;5727;42.600;23.028;2023-01-28T02:33:27;93042.53;;;1.69;100.00
11345;BME280;5727;42.600;23.028;2023-01-28T02:35:55;93048.75;;;1.68;100.00
11345;BME280;5727;42.600;23.028;2023-01-28T02:38:28;93042.31;;;1.52;100.00
11345;BME280;5727;42.600;23.028;2023-01-28T02:41:01;93045.69;;;1.53;100.00
11345;BME280;5727;42.600;23.028;2023-01-28T02:43:37;93042.81;;;1.54;100.00
11345;BME280;5727;42.600;23.028;2023-01-28T02:46:19;93049.50;;;1.42;100.00
11345;BME280;5727;42.600;23.028;2023-01-28T02:49:07;93041.59;;;1.20;100.00
11345;BME280;5727;42.600;23.028;2023-01-28T02:51:47;93043.50;;;1.14;100.00
11345;BME280;5727;42.600;23.028;2023-01-28T02:54:24;93042.19;;;1.17;100.00
11345;BME280;5727;42.600;23.028;2023-01-28T02:56:57;93047.38;;;1.30;100.00
11345;BME280;5727;42.600;23.028;2023-01-28T02:59:31;93049.34;;;1.20;100.00
11345;BME280;5727;42.600;23.028;2023-01-28T03:02:08;93042.06;;;1.08;100.00
11345;BME280;5727;42.600;23.028;2023-01-28T03:04:41;93052.25;;;1.00;100.00
11345;BME280;5727;42.600;23.028;2023-01-28T03:07:11;93046.91;;;0.96;100.00
11345;BME280;5727;42.600;23.028;2023-01-28T03:09:42;93048.09;;;0.85;100.00
11345;BME280;5727;42.600;23.028;2023-01-28T03:12:12;93044.22;;;0.69;100.00
11345;BME280;5727;42.600;23.028;2023-01-28T03:15:02;93049.69;;;0.81;100.00
11345;BME280;5727;42.600;23.028;2023-01-28T03:17:53;93057.22;;;0.96;100.00
11345;BME280;5727;42.600;23.028;2023-01-28T03:20:42;93065.56;;;1.07;100.00
11345;BME280;5727;42.600;23.028;2023-01-28T03:23:32;93064.03;;;1.06;100.00
11345;BME280;5727;42.600;23.028;2023-01-28T03:26:20;93065.06;;;1.05;100.00
11345;BME280;5727;42.600;23.028;2023-01-28T03:29:07;93059.31;;;0.94;100.00
11345;BME280;5727;42.600;23.028;2023-01-28T03:31:55;93063.56;;;1.04;100.00
11345;BME280;5727;42.600;23.028;2023-01-28T03:34:40;93064.72;;;1.11;100.00
11345;BME280;5727;42.600;23.028;2023-01-28T03:37:24;93066.63;;;1.06;100.00
11345;BME280;5727;42.600;23.028;2023-01-28T03:39:52;93060.25;;;0.98;100.00
11345;BME280;5727;42.600;23.028;2023-01-28T03:42:22;93063.75;;;1.07;100.00
11345;BME280;5727;42.600;23.028;2023-01-28T03:44:49;93060.88;;;1.09;100.00
11345;BME280;5727;42.600;23.028;2023-01-28T03:47:18;93062.19;;;1.06;100.00
11345;BME280;5727;42.600;23.028;2023-01-28T03:49:46;93071.00;;;1.05;100.00
11345;BME280;5727;42.600;23.028;2023-01-28T03:52:15;93063.06;;;1.02;100.00
11345;BME280;5727;42.600;23.028;2023-01-28T03:54:43;93066.81;;;1.09;100.00
11345;BME280;5727;42.600;23.028;2023-01-28T03:57:12;93068.34;;;1.10;100.00
11345;BME280;5727;42.600;23.028;2023-01-28T03:59:39;93073.13;;;1.17;100.00
11345;BME280;5727;42.600;23.028;2023-01-28T04:02:06;93068.38;;;1.24;100.00
11345;BME280;5727;42.600;23.028;2023-01-28T04:04:34;93070.13;;;1.28;100.00
11345;BME280;5727;42.600;23.028;2023-01-28T04:07:01;93070.88;;;1.29;100.00
11345;BME280;5727;42.600;23.028;2023-01-28T04:09:27;93079.31;;;1.34;100.00
11345;BME280;5727;42.600;23.028;2023-01-28T04:11:54;93079.56;;;1.33;100.00
11345;BME280;5727;42.600;23.028;2023-01-28T04:14:21;93085.88;;;1.40;100.00
11345;BME280;5727;42.600;23.028;2023-01-28T04:16:47;93080.28;;;1.38;100.00
11345;BME280;5727;42.600;23.028;2023-01-28T04:19:14;93089.25;;;1.41;100.00
11345;BME280;5727;42.600;23.028;2023-01-28T04:21:42;93083.31;;;1.40;100.00
11345;BME280;5727;42.600;23.028;2023-01-28T04:24:09;93085.06;;;1.45;100.00
11345;BME280;5727;42.600;23.028;2023-01-28T04:26:38;93086.38;;;1.42;100.00
11345;BME280;5727;42.600;23.028;2023-01-28T04:29:05;93096.69;;;1.42;100.00
11345;BME280;5727;42.600;23.028;2023-01-28T04:31:32;93098.25;;;1.43;100.00
11345;BME280;5727;42.600;23.028;2023-01-28T04:33:59;93106.47;;;1.45;100.00
11345;BME280;5727;42.600;23.028;2023-01-28T04:36:26;93100.72;;;1.48;100.00
11345;BME280;5727;42.600;23.028;2023-01-28T04:38:54;93105.63;;;1.50;100.00
11345;BME280;5727;42.600;23.028;2023-01-28T04:41:24;93111.44;;;1.42;100.00
11345;BME280;5727;42.600;23.028;2023-01-28T04:43:50;93116.94;;;1.35;100.00
11345;BME280;5727;42.600;23.028;2023-01-28T04:46:17;93118.50;;;1.36;100.00
11345;BME280;5727;42.600;23.028;2023-01-28T04:48:44;93113.81;;;1.38;100.00
11345;BME280;5727;42.600;23.028;2023-01-28T04:51:11;93114.03;;;1.42;100.00
11345;BME280;5727;42.600;23.028;2023-01-28T04:53:37;93118.50;;;1.36;100.00
11345;BME280;5727;42.600;23.028;2023-01-28T04:56:06;93128.53;;;1.19;100.00
11345;BME280;5727;42.600;23.028;2023-01-28T04:58:32;93122.16;;;0.98;100.00
11345;BME280;5727;42.600;23.028;2023-01-28T05:00:59;93128.84;;;0.99;100.00
11345;BME280;5727;42.600;23.028;2023-01-28T05:03:26;93122.53;;;0.91;100.00
11345;BME280;5727;42.600;23.028;2023-01-28T05:05:53;93128.72;;;0.90;100.00
11345;BME280;5727;42.600;23.028;2023-01-28T05:08:20;93130.47;;;0.76;100.00
11345;BME280;5727;42.600;23.028;2023-01-28T05:10:46;93127.03;;;0.81;100.00
11345;BME280;5727;42.600;23.028;2023-01-28T05:13:14;93141.59;;;0.72;100.00
11345;BME280;5727;42.600;23.028;2023-01-28T05:15:41;93136.94;;;0.74;100.00
11345;BME280;5727;42.600;23.028;2023-01-28T05:18:08;93146.44;;;0.78;100.00
11345;BME280;5727;42.600;23.028;2023-01-28T05:20:34;93147.66;;;0.81;100.00
11345;BME280;5727;42.600;23.028;2023-01-28T05:23:01;93143.94;;;0.92;100.00
11345;BME280;5727;42.600;23.028;2023-01-28T05:25:28;93146.44;;;0.97;100.00
11345;BME280;5727;42.600;23.028;2023-01-28T05:27:54;93154.38;;;0.82;100.00
11345;BME280;5727;42.600;23.028;2023-01-28T05:30:22;93155.69;;;0.79;100.00
11345;BME280;5727;42.600;23.028;2023-01-28T05:32:54;93155.88;;;0.83;100.00
11345;BME280;5727;42.600;23.028;2023-01-28T05:35:21;93159.16;;;0.88;100.00
11345;BME280;5727;42.600;23.028;2023-01-28T05:37:47;93153.59;;;1.00;100.00
11345;BME280;5727;42.600;23.028;2023-01-28T05:40:14;93161.03;;;0.83;100.00
11345;BME280;5727;42.600;23.028;2023-01-28T05:42:41;93175.63;;;0.92;100.00
11345;BME280;5727;42.600;23.028;2023-01-28T05:45:09;93172.41;;;1.01;100.00
11345;BME280;5727;42.600;23.028;2023-01-28T05:47:37;93179.53;;;1.09;100.00
11345;BME280;5727;42.600;23.028;2023-01-28T05:50:05;93179.19;;;0.97;100.00
11345;BME280;5727;42.600;23.028;2023-01-28T05:52:32;93182.25;;;0.80;100.00
11345;BME280;5727;42.600;23.028;2023-01-28T05:54:59;93185.22;;;0.68;100.00
11345;BME280;5727;42.600;23.028;2023-01-28T05:57:26;93181.06;;;0.72;100.00
11345;BME280;5727;42.600;23.028;2023-01-28T05:59:53;93183.13;;;0.70;100.00
11345;BME280;5727;42.600;23.028;2023-01-28T06:02:20;93186.28;;;0.86;100.00
11345;BME280;5727;42.600;23.028;2023-01-28T06:04:48;93186.78;;;0.88;100.00
11345;BME280;5727;42.600;23.028;2023-01-28T06:07:14;93191.94;;;0.88;100.00
11345;BME280;5727;42.600;23.028;2023-01-28T06:09:44;93194.25;;;0.89;100.00
11345;BME280;5727;42.600;23.028;2023-01-28T06:12:12;93199.88;;;0.91;100.00
11345;BME280;5727;42.600;23.028;2023-01-28T06:14:39;93200.66;;;0.92;100.00
11345;BME280;5727;42.600;23.028;2023-01-28T06:17:05;93197.03;;;0.93;100.00
11345;BME280;5727;42.600;23.028;2023-01-28T06:19:32;93201.28;;;0.84;100.00
11345;BME280;5727;42.600;23.028;2023-01-28T06:22:00;93210.78;;;0.65;100.00
11345;BME280;5727;42.600;23.028;2023-01-28T06:24:27;93208.50;;;0.63;100.00
11345;BME280;5727;42.600;23.028;2023-01-28T06:26:54;93219.56;;;0.64;100.00
11345;BME280;5727;42.600;23.028;2023-01-28T06:29:20;93214.19;;;0.60;100.00
11345;BME280;5727;42.600;23.028;2023-01-28T06:31:47;93223.22;;;0.58;100.00
11345;BME280;5727;42.600;23.028;2023-01-28T06:34:15;93220.88;;;0.61;100.00
11345;BME280;5727;42.600;23.028;2023-01-28T06:36:42;93226.03;;;0.61;100.00
11345;BME280;5727;42.600;23.028;2023-01-28T06:39:10;93222.63;;;0.66;100.00
11345;BME280;5727;42.600;23.028;2023-01-28T06:41:37;93239.47;;;0.82;100.00
11345;BME280;5727;42.600;23.028;2023-01-28T06:44:04;93236.88;;;0.82;100.00
11345;BME280;5727;42.600;23.028;2023-01-28T06:46:31;93236.28;;;0.90;100.00
11345;BME280;5727;42.600;23.028;2023-01-28T06:48:58;93247.63;;;0.89;100.00
11345;BME280;5727;42.600;23.028;2023-01-28T06:51:24;93245.63;;;0.81;100.00
11345;BME280;5727;42.600;23.028;2023-01-28T06:53:51;93249.50;;;0.83;100.00
11345;BME280;5727;42.600;23.028;2023-01-28T06:56:19;93250.25;;;0.84;100.00
11345;BME280;5727;42.600;23.028;2023-01-28T06:58:46;93254.56;;;0.88;100.00
11345;BME280;5727;42.600;23.028;2023-01-28T07:01:12;93267.63;;;0.97;100.00
11345;BME280;5727;42.600;23.028;2023-01-28T07:03:39;93265.97;;;1.06;100.00
11345;BME280;5727;42.600;23.028;2023-01-28T07:06:06;93266.63;;;1.17;100.00
11345;BME280;5727;42.600;23.028;2023-01-28T07:08:33;93268.34;;;1.21;100.00
11345;BME280;5727;42.600;23.028;2023-01-28T07:11:02;93272.09;;;0.91;100.00
11345;BME280;5727;42.600;23.028;2023-01-28T07:13:30;93275.44;;;0.92;100.00
11345;BME280;5727;42.600;23.028;2023-01-28T07:15:57;93274.38;;;0.93;100.00
11345;BME280;5727;42.600;23.028;2023-01-28T07:18:24;93282.34;;;0.97;100.00
11345;BME280;5727;42.600;23.028;2023-01-28T07:20:51;93287.00;;;0.94;100.00
11345;BME280;5727;42.600;23.028;2023-01-28T07:23:18;93291.84;;;0.77;100.00
11345;BME280;5727;42.600;23.028;2023-01-28T07:25:44;93288.03;;;0.75;100.00
11345;BME280;5727;42.600;23.028;2023-01-28T07:28:11;93290.75;;;0.83;100.00
11345;BME280;5727;42.600;23.028;2023-01-28T07:30:40;93292.50;;;0.88;100.00
11345;BME280;5727;42.600;23.028;2023-01-28T07:33:06;93295.78;;;0.93;100.00
11345;BME280;5727;42.600;23.028;2023-01-28T07:35:33;93293.44;;;0.97;100.00
11345;BME280;5727;42.600;23.028;2023-01-28T07:38:00;93291.75;;;1.06;100.00
11345;BME280;5727;42.600;23.028;2023-01-28T07:40:27;93304.81;;;0.96;100.00
11345;BME280;5727;42.600;23.028;2023-01-28T07:42:54;93298.41;;;0.88;100.00
11345;BME280;5727;42.600;23.028;2023-01-28T07:45:21;93303.09;;;0.63;100.00
11345;BME280;5727;42.600;23.028;2023-01-28T07:47:54;93303.38;;;0.61;100.00
11345;BME280;5727;42.600;23.028;2023-01-28T07:50:21;93304.25;;;0.52;100.00
11345;BME280;5727;42.600;23.028;2023-01-28T07:52:48;93313.94;;;0.60;100.00
11345;BME280;5727;42.600;23.028;2023-01-28T07:55:18;93315.00;;;0.59;100.00
11345;BME280;5727;42.600;23.028;2023-01-28T07:57:49;93318.06;;;0.61;100.00
11345;BME280;5727;42.600;23.028;2023-01-28T08:00:17;93314.44;;;0.62;100.00
11345;BME280;5727;42.600;23.028;2023-01-28T08:02:43;93318.72;;;0.71;100.00
11345;BME280;5727;42.600;23.028;2023-01-28T08:05:15;93319.50;;;0.72;100.00
11345;BME280;5727;42.600;23.028;2023-01-28T08:07:42;93315.81;;;0.78;100.00
11345;BME280;5727;42.600;23.028;2023-01-28T08:10:09;93329.31;;;0.70;100.00
11345;BME280;5727;42.600;23.028;2023-01-28T08:12:37;93321.91;;;0.63;100.00
11345;BME280;5727;42.600;23.028;2023-01-28T08:15:04;93328.19;;;0.52;100.00
11345;BME280;5727;42.600;23.028;2023-01-28T08:17:32;93327.16;;;0.53;100.00
11345;BME280;5727;42.600;23.028;2023-01-28T08:19:58;93329.03;;;0.48;100.00
11345;BME280;5727;42.600;23.028;2023-01-28T08:22:27;93331.53;;;0.53;100.00
11345;BME280;5727;42.600;23.028;2023-01-28T08:24:53;93334.91;;;0.48;100.00
11345;BME280;5727;42.600;23.028;2023-01-28T08:27:20;93332.84;;;0.50;100.00
11345;BME280;5727;42.600;23.028;2023-01-28T08:29:48;93337.25;;;0.50;100.00
11345;BME280;5727;42.600;23.028;2023-01-28T08:32:14;93348.00;;;0.57;100.00
11345;BME280;5727;42.600;23.028;2023-01-28T08:34:41;93338.47;;;0.81;100.00
11345;BME280;5727;42.600;23.028;2023-01-28T08:37:08;93339.78;;;1.02;100.00
11345;BME280;5727;42.600;23.028;2023-01-28T08:39:36;93345.88;;;0.87;100.00
11345;BME280;5727;42.600;23.028;2023-01-28T08:42:04;93350.34;;;1.06;100.00
11345;BME280;5727;42.600;23.028;2023-01-28T08:44:31;93353.38;;;1.31;100.00
11345;BME280;5727;42.600;23.028;2023-01-28T08:46:58;93353.97;;;1.47;100.00
11345;BME280;5727;42.600;23.028;2023-01-28T08:49:24;93351.25;;;1.38;100.00
11345;BME280;5727;42.600;23.028;2023-01-28T08:51:51;93353.25;;;1.41;100.00
11345;BME280;5727;42.600;23.028;2023-01-28T08:54:19;93358.13;;;1.43;100.00
11345;BME280;5727;42.600;23.028;2023-01-28T08:56:48;93357.81;;;1.49;100.00
11345;BME280;5727;42.600;23.028;2023-01-28T08:59:15;93354.97;;;1.27;100.00
11345;BME280;5727;42.600;23.028;2023-01-28T09:01:42;93351.75;;;1.17;100.00
11345;BME280;5727;42.600;23.028;2023-01-28T09:04:09;93359.16;;;1.23;100.00
11345;BME280;5727;42.600;23.028;2023-01-28T09:06:36;93350.06;;;1.49;100.00
11345;BME280;5727;42.600;23.028;2023-01-28T09:09:03;93360.19;;;1.64;100.00
11345;BME280;5727;42.600;23.028;2023-01-28T09:11:29;93358.31;;;1.88;100.00
11345;BME280;5727;42.600;23.028;2023-01-28T09:13:57;93357.75;;;2.10;100.00
11345;BME280;5727;42.600;23.028;2023-01-28T09:16:24;93360.09;;;2.25;100.00
11345;BME280;5727;42.600;23.028;2023-01-28T09:18:51;93354.78;;;2.35;100.00
11345;BME280;5727;42.600;23.028;2023-01-28T09:21:18;93355.31;;;2.19;100.00
11345;BME280;5727;42.600;23.028;2023-01-28T09:23:45;93356.34;;;2.18;100.00
11345;BME280;5727;42.600;23.028;2023-01-28T09:26:12;93350.28;;;2.41;100.00
11345;BME280;5727;42.600;23.028;2023-01-28T09:28:39;93353.59;;;2.28;100.00
11345;BME280;5727;42.600;23.028;2023-01-28T09:31:08;93348.44;;;2.28;100.00
11345;BME280;5727;42.600;23.028;2023-01-28T09:33:36;93352.31;;;2.44;100.00
11345;BME280;5727;42.600;23.028;2023-01-28T09:36:04;93350.28;;;2.41;100.00
11345;BME280;5727;42.600;23.028;2023-01-28T09:38:32;93350.78;;;2.43;100.00
11345;BME280;5727;42.600;23.028;2023-01-28T09:40:59;93361.34;;;2.60;100.00
11345;BME280;5727;42.600;23.028;2023-01-28T09:43:43;93352.28;;;2.76;100.00
11345;BME280;5727;42.600;23.028;2023-01-28T09:46:14;93350.38;;;2.95;100.00
11345;BME280;5727;42.600;23.028;2023-01-28T09:48:46;93353.53;;;3.06;100.00
11345;BME280;5727;42.600;23.028;2023-01-28T09:51:26;93358.81;;;2.87;100.00
11345;BME280;5727;42.600;23.028;2023-01-28T09:53:58;93360.59;;;2.73;100.00
11345;BME280;5727;42.600;23.028;2023-01-28T09:56:29;93357.72;;;2.61;100.00
11345;BME280;5727;42.600;23.028;2023-01-28T09:58:57;93351.16;;;2.50;100.00
11345;BME280;5727;42.600;23.028;2023-01-28T10:01:40;93342.63;;;2.36;100.00
11345;BME280;5727;42.600;23.028;2023-01-28T10:04:20;93346.56;;;2.15;100.00
11345;BME280;5727;42.600;23.028;2023-01-28T10:06:59;93350.38;;;2.17;100.00
11345;BME280;5727;42.600;23.028;2023-01-28T10:09:36;93338.38;;;2.08;100.00
11345;BME280;5727;42.600;23.028;2023-01-28T10:12:24;93341.53;;;2.05;100.00
11345;BME280;5727;42.600;23.028;2023-01-28T10:15:04;93331.13;;;2.10;100.00
11345;BME280;5727;42.600;23.028;2023-01-28T10:17:38;93335.31;;;2.06;100.00
11345;BME280;5727;42.600;23.028;2023-01-28T10:20:15;93344.47;;;2.17;100.00
11345;BME280;5727;42.600;23.028;2023-01-28T10:22:48;93337.91;;;2.24;100.00
11345;BME280;5727;42.600;23.028;2023-01-28T10:25:18;93338.13;;;2.41;100.00
11345;BME280;5727;42.600;23.028;2023-01-28T10:27:46;93347.63;;;2.46;100.00
11345;BME280;5727;42.600;23.028;2023-01-28T10:30:19;93338.97;;;2.37;100.00
11345;BME280;5727;42.600;23.028;2023-01-28T10:32:51;93346.56;;;2.47;100.00
11345;BME280;5727;42.600;23.028;2023-01-28T10:35:19;93350.91;;;2.51;100.00
11345;BME280;5727;42.600;23.028;2023-01-28T10:37:46;93346.91;;;2.59;100.00
11345;BME280;5727;42.600;23.028;2023-01-28T10:40:15;93349.50;;;2.40;100.00
11345;BME280;5727;42.600;23.028;2023-01-28T10:42:42;93342.91;;;2.48;100.00
11345;BME280;5727;42.600;23.028;2023-01-28T10:45:16;93345.34;;;2.26;100.00
11345;BME280;5727;42.600;23.028;2023-01-28T10:47:47;93332.75;;;2.38;100.00
11345;BME280;5727;42.600;23.028;2023-01-28T10:50:22;93342.56;;;2.54;100.00
11345;BME280;5727;42.600;23.028;2023-01-28T10:52:53;93345.81;;;2.60;100.00
11345;BME280;5727;42.600;23.028;2023-01-28T10:55:20;93351.81;;;2.74;100.00
11345;BME280;5727;42.600;23.028;2023-01-28T10:57:48;93346.22;;;2.53;100.00
11345;BME280;5727;42.600;23.028;2023-01-28T11:00:25;93344.19;;;2.50;100.00
11345;BME280;5727;42.600;23.028;2023-01-28T11:02:53;93344.78;;;2.61;100.00
11345;BME280;5727;42.600;23.028;2023-01-28T11:05:25;93342.28;;;2.24;100.00
11345;BME280;5727;42.600;23.028;2023-01-28T11:08:02;93340.53;;;2.38;100.00
11345;BME280;5727;42.600;23.028;2023-01-28T11:10:30;93337.78;;;2.61;100.00
11345;BME280;5727;42.600;23.028;2023-01-28T11:12:59;93339.38;;;2.90;100.00
11345;BME280;5727;42.600;23.028;2023-01-28T11:15:26;93338.59;;;3.03;100.00
11345;BME280;5727;42.600;23.028;2023-01-28T11:17:56;93337.75;;;3.21;100.00
11345;BME280;5727;42.600;23.028;2023-01-28T11:20:26;93343.38;;;3.23;100.00
11345;BME280;5727;42.600;23.028;2023-01-28T11:22:56;93340.59;;;3.33;100.00
11345;BME280;5727;42.600;23.028;2023-01-28T11:25:28;93339.88;;;3.05;100.00
11345;BME280;5727;42.600;23.028;2023-01-28T11:27:57;93342.44;;;3.19;100.00
11345;BME280;5727;42.600;23.028;2023-01-28T11:30:26;93335.66;;;3.09;100.00
11345;BME280;5727;42.600;23.028;2023-01-28T11:32:55;93339.84;;;2.78;100.00
11345;BME280;5727;42.600;23.028;2023-01-28T11:35:27;93334.38;;;2.79;100.00
11345;BME280;5727;42.600;23.028;2023-01-28T11:37:55;93340.75;;;2.55;100.00
11345;BME280;5727;42.600;23.028;2023-01-28T11:40:23;93335.59;;;2.55;100.00
11345;BME280;5727;42.600;23.028;2023-01-28T11:42:50;93339.50;;;2.52;100.00
11345;BME280;5727;42.600;23.028;2023-01-28T11:45:29;93330.72;;;2.35;100.00
11345;BME280;5727;42.600;23.028;2023-01-28T11:48:24;93335.78;;;2.58;100.00
11345;BME280;5727;42.600;23.028;2023-01-28T11:51:00;93334.25;;;2.57;100.00
11345;BME280;5727;42.600;23.028;2023-01-28T11:53:48;93335.75;;;2.45;100.00
11345;BME280;5727;42.600;23.028;2023-01-28T11:56:33;93330.34;;;2.28;100.00
11345;BME280;5727;42.600;23.028;2023-01-28T11:59:18;93326.19;;;2.27;100.00
11345;BME280;5727;42.600;23.028;2023-01-28T12:01:53;93323.47;;;2.37;100.00
11345;BME280;5727;42.600;23.028;2023-01-28T12:04:32;93324.09;;;2.61;100.00
11345;BME280;5727;42.600;23.028;2023-01-28T12:07:25;93327.88;;;2.82;100.00
11345;BME280;5727;42.600;23.028;2023-01-28T12:09:57;93330.25;;;2.92;100.00
11345;BME280;5727;42.600;23.028;2023-01-28T12:12:41;93337.63;;;2.85;100.00
11345;BME280;5727;42.600;23.028;2023-01-28T12:15:34;93339.75;;;2.97;100.00
11345;BME280;5727;42.600;23.028;2023-01-28T12:18:19;93331.22;;;2.96;100.00
11345;BME280;5727;42.600;23.028;2023-01-28T12:20:52;93331.41;;;2.86;100.00
11345;BME280;5727;42.600;23.028;2023-01-28T12:23:37;93334.03;;;2.54;100.00
11345;BME280;5727;42.600;23.028;2023-01-28T12:26:12;93335.16;;;2.48;100.00
11345;BME280;5727;42.600;23.028;2023-01-28T12:28:54;93329.44;;;2.51;100.00
11345;BME280;5727;42.600;23.028;2023-01-28T12:31:47;93336.97;;;2.34;100.00
11345;BME280;5727;42.600;23.028;2023-01-28T12:37:10;93338.19;;;2.23;100.00
11345;BME280;5727;42.600;23.028;2023-01-28T12:39:52;93335.94;;;2.16;100.00
11345;BME280;5727;42.600;23.028;2023-01-28T12:42:29;93342.50;;;2.27;100.00
11345;BME280;5727;42.600;23.028;2023-01-28T12:45:02;93339.75;;;2.37;100.00
11345;BME280;5727;42.600;23.028;2023-01-28T12:47:33;93337.59;;;2.26;100.00
11345;BME280;5727;42.600;23.028;2023-01-28T12:50:04;93352.91;;;2.22;100.00
11345;BME280;5727;42.600;23.028;2023-01-28T12:52:40;93350.28;;;2.41;100.00
11345;BME280;5727;42.600;23.028;2023-01-28T12:55:15;93357.50;;;2.25;100.00
11345;BME280;5727;42.600;23.028;2023-01-28T12:57:43;93355.84;;;2.34;100.00
11345;BME280;5727;42.600;23.028;2023-01-28T13:00:20;93354.09;;;2.30;100.00
11345;BME280;5727;42.600;23.028;2023-01-28T13:02:52;93365.47;;;2.29;100.00
11345;BME280;5727;42.600;23.028;2023-01-28T13:05:25;93368.53;;;2.31;100.00
11345;BME280;5727;42.600;23.028;2023-01-28T13:08:01;93364.81;;;2.37;100.00
11345;BME280;5727;42.600;23.028;2023-01-28T13:10:35;93379.34;;;2.33;100.00
11345;BME280;5727;42.600;23.028;2023-01-28T13:13:04;93371.94;;;2.45;100.00
11345;BME280;5727;42.600;23.028;2023-01-28T13:15:35;93371.59;;;2.51;100.00
11345;BME280;5727;42.600;23.028;2023-01-28T13:18:06;93373.03;;;2.57;100.00
11345;BME280;5727;42.600;23.028;2023-01-28T13:20:37;93377.63;;;2.60;100.00
11345;BME280;5727;42.600;23.028;2023-01-28T13:23:22;93385.44;;;2.42;100.00